Main page
METAR-TAF:

METAR-TAF

Airports :

Vigo–Peinador Airport

Vigo, Spain

latitude: 42-13N, longitude: 008-38W, elevation: 264 m

Current weather observation

The report was made 28 minutes ago, at 08:30 UTC
Wind 3 kt from variable directions
Temperature 11°C
Humidity 71%
Pressure 1025 hPa
Visibility 10 km or more
Few clouds at a height of 2900 ft
Broken clouds at a height of 5000 ft

METAR: LEVX 260830Z VRB03KT 9999 FEW029 BKN050 11/06 Q1025 NOSIG

Time: 10:58 (08:58 UTC)

Forecast

The report was made 3 hours and 58 minutes ago, at 05:00 UTC
Forecast valid from 26 at 06 UTC to 27 at 06 UTC
Wind 3 kt from variable directions
Visibility 10 km or more
Scattered clouds at a height of 2000 ft
Temporary
from 26 at 06 UTC to 26 at 18 UTC
Wind 10 kt from the West
Probability 30% :
Temporary
from 26 at 06 UTC to 26 at 12 UTC
rain

TAF: LEVX 260500Z 2606/2706 VRB03KT 9999 SCT020 TX13/2614Z TN04/2706Z TEMPO 2606/2618 28010KT PROB30 TEMPO 2606/2612 RA

Weather observations and forecasts of more than 4000 airports (METAR and TAF reports).

The available stations are represented by yellow and red dots on the map.

Hover mouse over dot to see the name of the station.

Then click to see weather observations and forecasts.

To change the map : click on the green buttons with a black cross to zoom in, on the green button with a dash to zoom out, or on the green arrows for adjacent maps.


METAR-TAF: